createdAt,value
2023-03-31T00:00:17.261Z,10.00
2023-03-31T00:05:18.590Z,10.12
2023-03-31T00:10:18.953Z,10.23
2023-03-31T00:15:18.055Z,10.50
2023-03-31T00:20:15.363Z,10.85
2023-03-31T00:25:12.380Z,11.08
2023-03-31T00:30:13.618Z,11.14
2023-03-31T00:35:15.166Z,11.38
2023-03-31T00:40:13.268Z,11.53
2023-03-31T00:45:31.238Z,11.67
2023-03-31T00:50:32.077Z,11.66
2023-03-31T00:55:33.467Z,11.67
2023-03-31T01:00:32.482Z,11.80
2023-03-31T01:05:33.299Z,11.83
2023-03-31T01:10:33.428Z,11.92
2023-03-31T01:15:46.227Z,11.93
2023-03-31T01:20:51.836Z,11.24
2023-03-31T01:26:22.850Z,11.04
2023-03-31T01:31:33.343Z,11.24
2023-03-31T01:37:03.757Z,11.30
2023-03-31T01:42:16.673Z,11.05
2023-03-31T01:47:17.607Z,11.24
2023-03-31T01:52:20.156Z,11.49
2023-03-31T01:57:20.200Z,11.62
2023-03-31T02:02:22.709Z,11.26
2023-03-31T02:07:27.773Z,10.90
2023-03-31T02:12:34.513Z,10.73
2023-03-31T02:17:33.459Z,10.46
2023-03-31T02:22:33.918Z,10.30
2023-03-31T02:27:34.564Z,10.17
2023-03-31T02:32:37.048Z,9.88
2023-03-31T02:37:36.110Z,10.05
2023-03-31T02:42:32.934Z,10.27
2023-03-31T02:47:29.833Z,10.03
2023-03-31T02:52:37.914Z,10.24
2023-03-31T02:57:58.759Z,10.04
2023-03-31T03:03:09.042Z,10.23
2023-03-31T03:08:14.576Z,10.05
2023-03-31T03:13:18.535Z,9.83
2023-03-31T03:18:15.377Z,9.80
2023-03-31T03:23:15.922Z,9.63
2023-03-31T03:28:15.635Z,9.44
2023-03-31T03:33:17.925Z,9.38
2023-03-31T03:38:15.647Z,9.28
2023-03-31T03:43:13.529Z,9.50
2023-03-31T03:48:17.038Z,9.62
2023-03-31T03:53:17.497Z,9.54
2023-03-31T03:58:19.374Z,9.57
2023-03-31T04:03:18.851Z,9.51
2023-03-31T04:08:16.800Z,9.42
2023-03-31T04:13:15.606Z,9.12
2023-03-31T04:18:18.138Z,8.67
2023-03-31T04:23:16.325Z,8.62
2023-03-31T04:28:14.140Z,8.35
2023-03-31T04:33:17.978Z,8.39
2023-03-31T04:38:18.166Z,8.47
2023-03-31T04:43:18.249Z,8.23
2023-03-31T04:48:21.625Z,8.22
2023-03-31T04:53:18.925Z,8.29
2023-03-31T04:58:17.288Z,8.46
2023-03-31T05:03:17.162Z,8.23
2023-03-31T05:08:16.417Z,8.37
2023-03-31T05:13:18.848Z,8.37
2023-03-31T05:18:16.417Z,8.32
2023-03-31T05:23:14.004Z,8.60
2023-03-31T05:28:16.728Z,8.76
2023-03-31T05:33:21.572Z,8.73
2023-03-31T05:38:21.166Z,8.88
2023-03-31T05:43:20.372Z,9.23
2023-03-31T05:48:17.369Z,9.09
2023-03-31T05:53:17.590Z,9.24
2023-03-31T05:58:25.597Z,9.06
2023-03-31T06:03:27.446Z,9.03
2023-03-31T06:08:25.875Z,9.03
2023-03-31T06:13:27.685Z,8.84
2023-03-31T06:18:46.585Z,8.58
2023-03-31T06:23:55.807Z,8.33
2023-03-31T06:28:52.984Z,8.57
2023-03-31T06:34:21.350Z,8.70
2023-03-31T06:39:40.558Z,8.92
2023-03-31T06:49:58.495Z,8.49
2023-03-31T06:55:14.859Z,8.65
2023-03-31T07:00:21.500Z,8.25
2023-03-31T07:05:51.365Z,8.52
2023-03-31T07:11:02.059Z,8.40
2023-03-31T07:16:06.890Z,8.23
2023-03-31T07:21:14.562Z,8.16
2023-03-31T07:26:46.187Z,8.28
2023-03-31T07:32:52.436Z,8.38
2023-03-31T07:38:01.959Z,8.35
2023-03-31T07:43:37.271Z,8.35
2023-03-31T07:49:04.060Z,8.43
2023-03-31T08:00:15.682Z,8.48
2023-03-31T08:05:46.150Z,8.89
2023-03-31T08:16:59.126Z,9.13
2023-03-31T08:22:36.539Z,9.62
2023-03-31T08:27:51.505Z,10.22
2023-03-31T08:34:08.453Z,10.54
2023-03-31T08:39:38.192Z,10.89
2023-03-31T08:56:40.693Z,11.98
2023-03-31T09:02:08.819Z,12.43
2023-03-31T09:08:37.821Z,12.50
2023-03-31T09:14:22.835Z,13.04
2023-03-31T09:20:33.318Z,13.09
2023-03-31T09:26:05.329Z,13.13
2023-03-31T09:31:40.895Z,13.16
2023-03-31T09:37:02.825Z,13.60
2023-03-31T09:42:24.289Z,13.80
2023-03-31T09:47:53.803Z,13.75
2023-03-31T09:53:08.815Z,13.81
2023-03-31T09:58:13.137Z,14.05
2023-03-31T10:03:32.094Z,14.27
2023-03-31T10:08:39.901Z,14.45
2023-03-31T10:13:49.107Z,14.61
2023-03-31T10:19:43.097Z,14.41
2023-03-31T10:25:05.202Z,14.24
2023-03-31T10:30:16.842Z,14.53
2023-03-31T10:35:33.274Z,14.39
2023-03-31T10:53:29.525Z,14.89
2023-03-31T10:59:04.145Z,15.30
2023-03-31T11:04:42.467Z,15.55
2023-03-31T11:16:36.709Z,15.62
2023-03-31T11:21:44.113Z,15.64
2023-03-31T11:26:50.904Z,15.82
2023-03-31T11:32:20.493Z,15.91
2023-03-31T11:37:50.163Z,15.90
2023-03-31T11:43:32.169Z,15.90
2023-03-31T11:48:52.426Z,15.95
2023-03-31T12:00:37.453Z,16.08
2023-03-31T12:05:59.629Z,16.19
2023-03-31T12:17:32.755Z,16.45
2023-03-31T12:22:38.426Z,16.73
2023-03-31T12:27:37.788Z,16.88
2023-03-31T12:32:38.239Z,17.26
2023-03-31T12:37:57.765Z,17.22
2023-03-31T12:43:13.237Z,17.32
2023-03-31T12:48:28.218Z,17.48
2023-03-31T12:53:29.810Z,17.36
2023-03-31T12:58:40.674Z,17.29
2023-03-31T13:03:42.379Z,17.37
2023-03-31T13:08:53.441Z,17.36
2023-03-31T13:14:00.642Z,17.55
2023-03-31T13:18:57.917Z,17.61
2023-03-31T13:23:59.180Z,17.66
2023-03-31T13:29:09.734Z,17.63
2023-03-31T13:34:08.042Z,17.83
2023-03-31T13:39:19.610Z,17.81
2023-03-31T13:44:29.331Z,17.87
2023-03-31T13:49:44.348Z,17.89
2023-03-31T13:55:13.947Z,17.68
2023-03-31T14:00:52.170Z,17.65
2023-03-31T14:05:55.240Z,17.69
2023-03-31T14:10:55.901Z,17.67
2023-03-31T14:15:54.383Z,17.73
2023-03-31T14:20:58.746Z,17.75
2023-03-31T14:25:59.699Z,17.69
2023-03-31T14:31:10.372Z,17.74
2023-03-31T14:36:22.893Z,17.56
2023-03-31T14:41:20.437Z,17.53
2023-03-31T14:46:21.607Z,17.77
2023-03-31T14:51:23.905Z,17.63
2023-03-31T14:56:24.146Z,17.56
2023-03-31T15:01:23.675Z,17.55
2023-03-31T15:06:23.796Z,17.65
2023-03-31T15:11:23.120Z,17.58
2023-03-31T15:16:20.661Z,17.82
2023-03-31T15:21:24.319Z,17.87
2023-03-31T15:26:34.336Z,18.16
2023-03-31T15:31:40.620Z,18.36
2023-03-31T15:36:38.289Z,19.22
2023-03-31T15:41:35.067Z,19.09
2023-03-31T15:46:46.686Z,19.13
2023-03-31T15:51:46.434Z,18.88
2023-03-31T15:56:44.662Z,18.70
2023-03-31T16:01:43.065Z,18.54
2023-03-31T16:06:44.201Z,18.55
2023-03-31T16:11:42.466Z,18.37
2023-03-31T16:16:46.825Z,18.31
2023-03-31T16:21:52.260Z,18.15
2023-03-31T16:26:49.927Z,18.17
2023-03-31T16:31:46.913Z,18.03
2023-03-31T16:36:45.905Z,17.91
2023-03-31T16:41:42.649Z,17.69
2023-03-31T16:46:40.782Z,17.70
2023-03-31T16:51:37.439Z,17.59
2023-03-31T16:56:34.234Z,17.42
2023-03-31T17:01:31.002Z,17.28
2023-03-31T17:06:31.876Z,17.24
2023-03-31T17:11:33.764Z,17.15
2023-03-31T17:21:32.507Z,16.89
2023-03-31T17:26:29.644Z,16.89
2023-03-31T17:31:26.713Z,16.78
2023-03-31T17:36:23.317Z,16.74
2023-03-31T17:41:20.904Z,16.61
2023-03-31T17:46:18.226Z,16.46
2023-03-31T17:51:20.156Z,16.41
2023-03-31T17:56:17.245Z,16.39
2023-03-31T18:01:15.074Z,16.33
2023-03-31T18:06:12.769Z,16.28
2023-03-31T18:11:10.082Z,16.27
2023-03-31T18:16:09.307Z,16.13
2023-03-31T18:21:07.757Z,16.19
2023-03-31T18:26:06.116Z,15.88
2023-03-31T18:31:03.280Z,15.98
2023-03-31T18:36:00.133Z,15.98
2023-03-31T18:40:57.691Z,15.77
2023-03-31T18:45:55.953Z,15.83
2023-03-31T18:50:53.066Z,15.80
2023-03-31T18:55:49.937Z,15.74
2023-03-31T19:00:47.136Z,16.00
2023-03-31T19:05:49.800Z,15.94
2023-03-31T19:10:47.055Z,15.94
2023-03-31T19:15:43.998Z,16.06
2023-03-31T19:20:41.419Z,16.15
2023-03-31T19:25:38.348Z,16.34
2023-03-31T19:30:35.100Z,16.26
2023-03-31T19:35:34.525Z,16.19
2023-03-31T19:40:31.933Z,16.28
2023-03-31T19:45:28.852Z,16.13
2023-03-31T19:50:25.797Z,15.96
2023-03-31T19:55:22.446Z,16.18
2023-03-31T20:00:21.665Z,16.21
2023-03-31T20:05:22.417Z,16.19
2023-03-31T20:10:20.016Z,16.23
2023-03-31T20:15:16.964Z,16.28
2023-03-31T20:20:14.382Z,16.26
2023-03-31T20:25:11.081Z,16.26
2023-03-31T20:30:08.186Z,16.45
2023-03-31T20:35:06.012Z,16.24
2023-03-31T20:40:03.535Z,16.57
2023-03-31T20:45:00.181Z,16.41
2023-03-31T20:49:56.739Z,16.04
2023-03-31T20:54:53.268Z,16.08
2023-03-31T20:59:51.043Z,16.08
2023-03-31T21:04:49.765Z,15.40
2023-03-31T21:09:50.209Z,15.08
2023-03-31T21:14:46.932Z,15.11
2023-03-31T21:19:44.429Z,15.11
2023-03-31T21:24:41.003Z,15.22
2023-03-31T21:29:37.707Z,14.94
2023-03-31T21:34:34.269Z,14.94
2023-03-31T21:39:31.555Z,15.01
2023-03-31T21:44:28.136Z,15.09
2023-03-31T21:49:24.681Z,14.96
2023-03-31T21:54:22.239Z,15.16
2023-03-31T21:59:19.718Z,15.23
2023-03-31T22:04:16.610Z,15.42
2023-03-31T22:09:13.218Z,15.05
2023-03-31T22:14:10.465Z,15.29
2023-03-31T22:19:08.309Z,14.90
2023-03-31T22:24:11.756Z,14.78
2023-03-31T22:29:08.447Z,14.31
2023-03-31T22:34:05.276Z,14.17
2023-03-31T22:39:02.552Z,14.59
2023-03-31T22:43:59.085Z,14.76
2023-03-31T22:48:56.480Z,14.68
2023-03-31T22:53:56.031Z,14.63
2023-03-31T22:58:56.491Z,14.80
2023-03-31T23:03:53.133Z,14.92
2023-03-31T23:08:49.859Z,14.95
2023-03-31T23:13:47.037Z,14.91
2023-03-31T23:18:46.367Z,14.88
2023-03-31T23:23:43.195Z,14.76
2023-03-31T23:28:40.052Z,14.67
2023-03-31T23:33:36.725Z,14.66
2023-03-31T23:38:35.037Z,14.67
2023-03-31T23:43:32.070Z,14.53
2023-03-31T23:48:28.947Z,14.41
2023-03-31T23:53:25.800Z,14.37
2023-03-31T23:58:24.878Z,14.44
